Time;durP1;ratioP1;P1;durP2;ratioP2;P2;SDS_P1;SDS_P2;PMS_P1;PMS_P2;Temp;Humidity;BMP_temperature;BMP_pressure;BME280_temperature;BME280_humidity;BME280_pressure;Samples;Min_cycle;Max_cycle;Signal;HPM_P1;HPM_P2
2022/11/02 00:01:40;;;;;;;20.90;11.90;;;;;;;9.97;100.00;99844.30;100641;1324;23235;-39
2022/11/02 00:04:05;;;;;;;25.10;14.90;;;;;;;9.93;100.00;99842.23;100686;1341;22926;-36
2022/11/02 00:06:31;;;;;;;23.70;14.60;;;;;;;9.97;100.00;99837.55;100677;1341;22750;-36
2022/11/02 00:08:56;;;;;;;35.10;15.60;;;;;;;9.98;100.00;99835.48;100694;1331;22761;-36
2022/11/02 00:11:22;;;;;;;21.50;14.40;;;;;;;9.92;100.00;99842.37;100670;1340;26490;-36
2022/11/02 00:13:48;;;;;;;22.30;12.30;;;;;;;9.76;100.00;99847.77;100657;1339;23222;-37
2022/11/02 00:16:14;;;;;;;21.70;12.40;;;;;;;9.69;100.00;99849.89;100697;1339;24484;-36
2022/11/02 00:18:40;;;;;;;25.80;11.70;;;;;;;9.76;100.00;99855.67;100755;1332;22893;-38
2022/11/02 00:21:05;;;;;;;25.10;14.00;;;;;;;9.70;100.00;99861.02;100666;1341;22909;-35
2022/11/02 00:23:31;;;;;;;22.00;12.50;;;;;;;9.60;100.00;99863.73;100616;1341;22693;-36
2022/11/02 00:25:57;;;;;;;25.80;14.60;;;;;;;9.56;100.00;99865.14;100638;1323;24416;-35
2022/11/02 00:28:23;;;;;;;24.80;14.30;;;;;;;9.50;100.00;99864.30;100675;1331;22895;-38
2022/11/02 00:30:48;;;;;;;31.60;16.10;;;;;;;9.44;100.00;99868.18;100542;1341;24577;-34
2022/11/02 00:33:14;;;;;;;30.30;15.80;;;;;;;9.38;100.00;99871.38;100631;1334;22518;-34
2022/11/02 00:35:39;;;;;;;32.70;15.10;;;;;;;9.21;100.00;99874.89;100580;1340;24373;-31
2022/11/02 00:38:05;;;;;;;25.20;14.20;;;;;;;9.10;100.00;99880.67;100644;1331;22705;-31
2022/11/02 00:40:31;;;;;;;23.30;14.20;;;;;;;9.07;100.00;99879.35;100703;1340;22890;-34
2022/11/02 00:42:57;;;;;;;19.90;11.80;;;;;;;9.00;100.00;99880.35;100749;1341;23239;-38
2022/11/02 00:45:22;;;;;;;30.30;14.50;;;;;;;8.99;100.00;99886.08;100481;1336;24345;-33
2022/11/02 00:47:48;;;;;;;19.20;11.70;;;;;;;8.93;100.00;99890.10;100704;1340;23115;-33
2022/11/02 00:50:14;;;;;;;27.10;13.80;;;;;;;8.87;100.00;99893.02;100571;1341;24495;-35
2022/11/02 00:52:41;;;;;;;19.70;10.80;;;;;;;8.84;100.00;99898.77;100583;1340;22903;-32
2022/11/02 00:55:07;;;;;;;20.00;9.20;;;;;;;8.80;100.00;99906.41;100609;1338;22842;-32
2022/11/02 00:57:34;;;;;;;31.50;17.60;;;;;;;8.83;100.00;99912.77;100686;1339;22751;-32
2022/11/02 00:59:59;;;;;;;22.20;12.30;;;;;;;8.80;100.00;99914.61;100685;1334;24313;-35
2022/11/02 01:02:25;;;;;;;26.60;13.10;;;;;;;8.78;100.00;99920.30;100693;1333;22510;-35
2022/11/02 01:04:51;;;;;;;32.60;14.70;;;;;;;8.74;100.00;99918.11;100637;1331;23117;-33
2022/11/02 01:07:16;;;;;;;30.70;15.40;;;;;;;8.71;100.00;99909.56;100629;1341;24898;-33
2022/11/02 01:09:42;;;;;;;34.60;17.30;;;;;;;8.75;100.00;99913.90;100767;1340;22736;-37
2022/11/02 01:12:08;;;;;;;30.40;15.20;;;;;;;8.74;100.00;99911.63;100655;1339;23352;-36
2022/11/02 01:14:34;;;;;;;21.40;12.80;;;;;;;8.69;100.00;99919.27;100692;1340;22894;-35
2022/11/02 01:17:00;;;;;;;36.20;16.20;;;;;;;8.60;100.00;99923.74;100778;1334;22881;-35
2022/11/02 01:19:25;;;;;;;20.10;8.80;;;;;;;8.55;100.00;99930.08;100669;1332;23254;-32
2022/11/02 01:21:51;;;;;;;24.20;12.20;;;;;;;8.58;100.00;99932.17;100687;1340;23222;-34
2022/11/02 01:24:17;;;;;;;28.40;15.70;;;;;;;8.63;100.00;99938.42;100721;1339;24373;-32
2022/11/02 01:26:43;;;;;;;19.80;12.10;;;;;;;8.59;100.00;99937.63;100691;1324;22748;-36
2022/11/02 01:29:09;;;;;;;27.90;15.50;;;;;;;8.54;100.00;99935.66;100696;1341;23055;-34
2022/11/02 01:31:34;;;;;;;28.30;13.90;;;;;;;8.57;100.00;99938.73;100693;1340;22743;-37
2022/11/02 01:34:00;;;;;;;29.30;14.70;;;;;;;8.57;100.00;99945.94;100653;1331;24418;-33
2022/11/02 01:36:25;;;;;;;37.90;19.40;;;;;;;8.54;100.00;99947.85;100665;1331;24389;-37
2022/11/02 01:38:51;;;;;;;24.50;13.60;;;;;;;8.45;100.00;99952.25;100589;1327;23272;-35
2022/11/02 01:41:17;;;;;;;21.20;11.30;;;;;;;8.40;100.00;99955.36;100685;1340;23002;-33
2022/11/02 01:43:44;;;;;;;37.00;16.40;;;;;;;8.42;100.00;99957.20;100670;1316;22598;-36
2022/11/02 01:46:09;;;;;;;28.40;14.20;;;;;;;8.41;100.00;99962.09;100682;1334;26491;-33
2022/11/02 01:48:36;;;;;;;25.00;14.00;;;;;;;8.40;100.00;99959.88;100640;1339;22538;-36
2022/11/02 01:51:05;;;;;;;27.80;13.70;;;;;;;8.45;100.00;99957.34;100654;1333;22811;-32
2022/11/02 01:53:32;;;;;;;30.10;14.30;;;;;;;8.34;100.00;99957.55;100739;1328;24514;-33
2022/11/02 01:55:58;;;;;;;29.10;14.70;;;;;;;8.27;100.00;99958.45;100701;1329;23098;-33
2022/11/02 01:58:23;;;;;;;29.10;15.40;;;;;;;8.24;100.00;99956.14;100676;1339;23129;-36
2022/11/02 02:00:49;;;;;;;31.60;15.90;;;;;;;8.20;100.00;99958.14;100651;1332;24577;-38
2022/11/02 02:03:17;;;;;;;33.10;14.10;;;;;;;8.18;100.00;99957.84;100667;1340;22965;-34
2022/11/02 02:05:47;;;;;;;28.30;15.50;;;;;;;8.11;100.00;99957.12;100696;1341;23012;-36
2022/11/02 02:08:15;;;;;;;31.90;13.90;;;;;;;8.08;100.00;99956.27;100676;1340;24913;-37
2022/11/02 02:10:40;;;;;;;28.30;14.50;;;;;;;8.06;100.00;99963.44;100595;1339;22852;-39
2022/11/02 02:13:06;;;;;;;34.60;15.30;;;;;;;8.03;100.00;99967.17;100699;1323;25021;-36
2022/11/02 02:15:38;;;;;;;30.90;14.90;;;;;;;7.93;100.00;99965.48;100649;1341;24930;-36
2022/11/02 02:18:09;;;;;;;32.60;16.10;;;;;;;7.86;100.00;99966.47;100704;1336;22507;-33
2022/11/02 02:20:52;;;;;;;27.70;14.50;;;;;;;7.88;100.00;99975.86;100694;1341;24451;-33
2022/11/02 02:23:26;;;;;;;40.90;16.50;;;;;;;7.82;100.00;99977.21;100711;1341;24485;-36
2022/11/02 02:25:56;;;;;;;29.10;15.50;;;;;;;7.84;100.00;99979.09;100707;1336;24570;-35
2022/11/02 02:28:22;;;;;;;16.30;9.50;;;;;;;7.81;100.00;99978.70;100718;1334;22761;-35
2022/11/02 02:30:50;;;;;;;34.60;15.90;;;;;;;7.80;100.00;99976.91;100785;1340;22981;-36
2022/11/02 02:33:23;;;;;;;32.80;15.40;;;;;;;7.82;100.00;99978.99;100666;1340;24428;-35
2022/11/02 02:35:54;;;;;;;26.20;14.20;;;;;;;7.84;100.00;99981.99;100722;1341;22576;-36
2022/11/02 02:38:26;;;;;;;39.80;17.60;;;;;;;7.85;100.00;99981.37;100652;1341;22509;-36
2022/11/02 02:40:57;;;;;;;28.70;14.30;;;;;;;7.86;100.00;99986.28;100621;1341;22512;-33
2022/11/02 02:43:30;;;;;;;37.00;16.60;;;;;;;7.89;100.00;99987.70;100697;1332;24295;-36
2022/11/02 02:46:00;;;;;;;23.30;13.40;;;;;;;7.91;100.00;99986.42;100677;1331;22503;-35
2022/11/02 02:48:26;;;;;;;36.90;15.30;;;;;;;7.92;100.00;99995.42;100685;1341;25638;-39
2022/11/02 02:50:54;;;;;;;30.10;11.00;;;;;;;7.97;100.00;99995.42;100654;1339;23230;-35
2022/11/02 02:53:22;;;;;;;37.20;20.00;;;;;;;8.10;100.00;100008.38;100690;1340;23106;-33
2022/11/02 02:55:48;;;;;;;28.30;13.80;;;;;;;8.16;100.00;100018.02;100763;1336;22763;-33
2022/11/02 02:58:18;;;;;;;21.40;13.30;;;;;;;8.15;100.00;100015.77;100647;1331;23021;-33
2022/11/02 03:00:44;;;;;;;34.80;14.70;;;;;;;8.30;100.00;100020.70;100775;1336;23220;-38
2022/11/02 03:03:16;;;;;;;29.20;13.10;;;;;;;8.36;100.00;100029.95;100685;1340;22526;-33
2022/11/02 03:05:41;;;;;;;28.90;13.80;;;;;;;8.37;100.00;100033.56;100709;1334;22752;-36
2022/11/02 03:08:12;;;;;;;24.70;14.20;;;;;;;8.38;100.00;100030.38;100705;1329;23105;-36
2022/11/02 03:10:43;;;;;;;34.40;16.70;;;;;;;8.32;100.00;100031.88;100549;1341;23024;-35
2022/11/02 03:13:16;;;;;;;26.20;14.10;;;;;;;8.35;100.00;100034.25;100757;1340;25229;-35
2022/11/02 03:15:49;;;;;;;25.10;13.20;;;;;;;8.35;100.00;100034.98;100754;1341;24383;-37
2022/11/02 03:18:22;;;;;;;24.40;11.10;;;;;;;8.34;100.00;100040.94;100734;1338;23345;-34
2022/11/02 03:20:51;;;;;;;23.70;12.10;;;;;;;8.43;100.00;100043.27;100743;1341;22505;-34
2022/11/02 03:23:23;;;;;;;32.80;15.10;;;;;;;8.47;100.00;100044.06;100716;1339;24321;-38
2022/11/02 03:25:57;;;;;;;27.60;13.60;;;;;;;8.52;100.00;100043.52;100663;1333;24568;-33
2022/11/02 03:28:31;;;;;;;32.80;13.40;;;;;;;8.57;100.00;100047.44;100684;1338;24387;-36
2022/11/02 03:31:00;;;;;;;28.40;15.50;;;;;;;8.58;100.00;100048.27;100674;1339;24375;-36
2022/11/02 03:33:30;;;;;;;24.90;11.40;;;;;;;8.58;100.00;100047.17;100673;1334;22726;-32
2022/11/02 03:36:01;;;;;;;29.40;14.90;;;;;;;8.63;100.00;100047.30;100712;1340;23112;-36
2022/11/02 03:38:31;;;;;;;20.20;9.90;;;;;;;8.68;100.00;100037.34;100409;1334;449803;-33
2022/11/02 03:40:57;;;;;;;23.80;14.60;;;;;;;8.77;100.00;100031.83;100645;1334;22510;-35
2022/11/02 03:43:23;;;;;;;23.30;10.60;;;;;;;8.81;100.00;100031.92;100699;1341;24562;-35
2022/11/02 03:45:51;;;;;;;30.00;14.30;;;;;;;8.79;100.00;100033.06;100660;1340;22521;-34
2022/11/02 03:48:17;;;;;;;24.20;11.20;;;;;;;8.75;100.00;100029.71;100736;1340;24319;-34
2022/11/02 03:50:45;;;;;;;19.40;11.40;;;;;;;8.77;100.00;100031.16;100718;1341;24326;-31
2022/11/02 03:53:14;;;;;;;23.00;12.50;;;;;;;8.81;100.00;100031.22;100714;1342;22627;-33
2022/11/02 03:55:42;;;;;;;28.80;14.30;;;;;;;8.80;100.00;100026.73;100685;1337;24383;-32
2022/11/02 03:58:10;;;;;;;30.20;13.40;;;;;;;8.76;100.00;100028.34;100498;1341;22799;-35
2022/11/02 04:00:35;;;;;;;31.90;14.50;;;;;;;8.74;100.00;100028.09;100796;1344;24411;-34
2022/11/02 04:03:03;;;;;;;37.90;15.00;;;;;;;8.79;100.00;100032.51;100724;1342;25276;-37
2022/11/02 04:05:30;;;;;;;21.70;12.10;;;;;;;8.79;100.00;100030.18;100661;1340;22737;-36
2022/11/02 04:10:24;;;;;;;34.80;11.60;;;;;;;8.70;100.00;100029.23;100731;1316;23413;-36
2022/11/02 04:15:19;;;;;;;28.20;14.70;;;;;;;8.74;100.00;100025.59;100707;1341;22852;-33
2022/11/02 04:20:13;;;;;;;21.80;12.10;;;;;;;8.75;100.00;100029.06;100685;1339;24570;-33
2022/11/02 04:25:14;;;;;;;19.10;10.30;;;;;;;8.73;100.00;100023.94;100694;1344;24326;-35
2022/11/02 04:27:41;;;;;;;16.60;10.00;;;;;;;8.71;100.00;100019.02;100715;1332;23261;-35
2022/11/02 04:30:07;;;;;;;19.40;12.50;;;;;;;8.67;100.00;100012.59;100689;1334;22748;-32
2022/11/02 04:35:07;;;;;;;26.50;13.60;;;;;;;8.57;100.00;100008.05;100694;1343;24593;-35
2022/11/02 04:40:06;;;;;;;23.00;12.70;;;;;;;8.38;100.00;100010.61;100732;1344;24302;-35
2022/11/02 04:42:32;;;;;;;34.30;17.30;;;;;;;8.37;100.00;100007.66;100645;1333;23243;-35
2022/11/02 04:44:58;;;;;;;33.40;17.40;;;;;;;8.38;100.00;100007.21;100556;1332;23270;-32
2022/11/02 04:47:23;;;;;;;28.70;15.10;;;;;;;8.37;100.00;100009.62;100722;1344;22505;-36
2022/11/02 04:49:49;;;;;;;26.10;15.00;;;;;;;8.30;100.00;100008.27;100674;1340;24376;-32
2022/11/02 04:52:14;;;;;;;23.30;12.30;;;;;;;8.28;100.00;100010.77;100648;1342;22758;-33
2022/11/02 04:54:40;;;;;;;36.70;15.40;;;;;;;8.22;100.00;100013.77;100645;1344;23244;-37
2022/11/02 04:57:05;;;;;;;22.40;12.90;;;;;;;8.14;100.00;100015.55;100688;1344;24830;-36
2022/11/02 04:59:31;;;;;;;27.70;13.50;;;;;;;8.15;100.00;100020.20;100717;1332;24269;-33
2022/11/02 05:01:56;;;;;;;30.70;16.10;;;;;;;8.16;100.00;100022.10;100703;1333;23114;-33
2022/11/02 05:04:22;;;;;;;28.80;13.00;;;;;;;8.21;100.00;100022.27;100721;1342;23242;-36
2022/11/02 05:06:48;;;;;;;26.60;15.20;;;;;;;8.23;100.00;100026.52;100710;1344;23117;-33
2022/11/02 05:09:13;;;;;;;32.40;15.90;;;;;;;8.29;100.00;100029.98;100749;1344;22764;-39
2022/11/02 05:11:39;;;;;;;31.70;14.80;;;;;;;8.30;100.00;100029.65;100498;1338;22878;-33
2022/11/02 05:14:04;;;;;;;38.20;15.10;;;;;;;8.34;100.00;100042.02;100649;1332;22889;-37
2022/11/02 05:16:30;;;;;;;31.20;14.10;;;;;;;8.40;100.00;100043.55;100751;1344;22517;-34
2022/11/02 05:18:56;;;;;;;36.30;17.80;;;;;;;8.43;100.00;100049.35;100510;1342;23235;-34
2022/11/02 05:21:21;;;;;;;21.40;12.50;;;;;;;8.48;100.00;100047.51;100631;1329;22897;-34
2022/11/02 05:23:47;;;;;;;30.80;16.90;;;;;;;8.57;100.00;100056.54;100544;1345;23405;-36
2022/11/02 05:26:13;;;;;;;46.80;17.60;;;;;;;8.63;100.00;100061.20;100730;1336;22873;-34
2022/11/02 05:28:39;;;;;;;33.00;15.00;;;;;;;8.67;100.00;100067.55;100707;1331;23091;-33
2022/11/02 05:31:05;;;;;;;31.20;12.90;;;;;;;8.71;100.00;100073.07;100757;1336;22522;-34
2022/11/02 05:33:31;;;;;;;32.10;15.70;;;;;;;8.76;100.00;100078.27;100699;1344;23017;-33
2022/11/02 05:35:57;;;;;;;30.70;14.60;;;;;;;8.75;100.00;100075.29;100745;1339;22751;-37
2022/11/02 05:38:23;;;;;;;25.70;11.90;;;;;;;8.80;100.00;100080.27;100737;1336;22735;-35
2022/11/02 05:40:52;;;;;;;25.50;14.60;;;;;;;8.82;100.00;100077.19;100633;1341;24355;-36
2022/11/02 05:43:18;;;;;;;28.10;13.50;;;;;;;8.84;100.00;100074.27;100630;1334;24599;-33
2022/11/02 05:45:43;;;;;;;35.30;17.80;;;;;;;8.90;100.00;100070.98;100663;1341;24423;-36
2022/11/02 05:48:09;;;;;;;33.20;14.70;;;;;;;8.90;100.00;100072.73;100665;1340;23459;-33
2022/11/02 05:50:34;;;;;;;40.00;17.20;;;;;;;8.90;100.00;100067.02;100664;1341;26982;-33
2022/11/02 05:53:00;;;;;;;27.80;15.60;;;;;;;8.88;100.00;100060.27;100591;1344;23241;-32
2022/11/02 05:55:26;;;;;;;33.60;13.60;;;;;;;8.73;100.00;100055.13;100739;1333;22503;-33
2022/11/02 05:57:52;;;;;;;;;;;;;;;8.68;100.00;100054.43;100725;1336;22761;-33
2022/11/02 06:00:18;;;;;;;39.10;16.20;;;;;;;8.63;100.00;100056.54;100702;1340;24568;-34
2022/11/02 06:02:43;;;;;;;33.30;17.10;;;;;;;8.57;100.00;100058.15;100731;1344;24485;-34
2022/11/02 06:05:09;;;;;;;26.20;14.10;;;;;;;8.59;100.00;100056.38;100732;1336;22739;-34
2022/11/02 06:07:35;;;;;;;31.40;16.40;;;;;;;8.50;100.00;100050.55;100700;1341;24260;-37
2022/11/02 06:10:01;;;;;;;37.00;19.30;;;;;;;8.48;100.00;100047.95;100694;1332;22893;-37
2022/11/02 06:12:27;;;;;;;33.70;16.10;;;;;;;8.44;100.00;100051.23;100603;1338;22805;-37
2022/11/02 06:14:53;;;;;;;35.80;15.00;;;;;;;8.39;100.00;100057.56;100784;1344;23218;-34
2022/11/02 06:17:18;;;;;;;36.20;16.90;;;;;;;8.30;100.00;100063.23;100651;1344;23218;-34
2022/11/02 06:19:45;;;;;;;35.50;16.80;;;;;;;8.33;100.00;100065.40;100717;1344;24375;-34
2022/11/02 06:22:11;;;;;;;30.70;13.90;;;;;;;8.31;100.00;100068.64;100584;1344;24381;-34
2022/11/02 06:24:37;;;;;;;36.10;18.40;;;;;;;8.31;100.00;100071.05;100658;1341;22925;-37
2022/11/02 06:27:02;;;;;;;35.90;17.80;;;;;;;8.38;100.00;100077.68;100663;1339;22722;-34
2022/11/02 06:29:28;;;;;;;33.40;17.60;;;;;;;8.46;100.00;100088.43;100716;1336;22715;-37
2022/11/02 06:31:54;;;;;;;23.10;11.70;;;;;;;8.52;100.00;100087.27;100649;1336;22748;-36
2022/11/02 06:34:19;;;;;;;35.20;14.70;;;;;;;8.51;100.00;100094.13;100675;1336;24987;-36
2022/11/02 06:36:45;;;;;;;28.40;15.50;;;;;;;8.58;100.00;100093.39;100577;1335;22898;-33
2022/11/02 06:39:11;;;;;;;27.50;13.50;;;;;;;8.63;100.00;100095.84;100720;1338;24789;-36
2022/11/02 06:41:36;;;;;;;20.70;10.30;;;;;;;8.73;100.00;100102.14;100606;1335;22718;-33
2022/11/02 06:44:02;;;;;;;31.80;15.20;;;;;;;8.78;100.00;100096.29;100582;1336;23263;-33
2022/11/02 06:46:27;;;;;;;31.40;14.60;;;;;;;8.87;100.00;100095.92;100695;1344;24248;-34
2022/11/02 06:48:53;;;;;;;30.60;15.70;;;;;;;8.95;100.00;100097.73;100613;1341;22759;-36
2022/11/02 06:51:18;;;;;;;20.00;9.30;;;;;;;9.02;100.00;100091.56;100733;1341;24337;-35
2022/11/02 06:53:44;;;;;;;25.60;12.10;;;;;;;9.13;100.00;100081.84;100666;1336;24347;-34
2022/11/02 06:56:11;;;;;;;22.70;12.80;;;;;;;9.20;100.00;100073.84;100577;1344;23903;-34
2022/11/02 06:58:36;;;;;;;18.60;9.50;;;;;;;9.28;100.00;100064.42;100719;1341;24306;-33
2022/11/02 07:01:05;;;;;;;25.90;7.70;;;;;;;9.35;100.00;100059.91;100685;1340;22752;-33
2022/11/02 07:03:31;;;;;;;26.30;14.10;;;;;;;9.41;100.00;100050.30;100709;1340;25372;-33
2022/11/02 07:05:57;;;;;;;25.10;12.60;;;;;;;9.47;100.00;100036.41;100709;1329;23221;-37
2022/11/02 07:08:22;;;;;;;19.80;10.70;;;;;;;9.47;100.00;100026.85;100550;1333;22571;-34
2022/11/02 07:10:48;;;;;;;22.60;11.90;;;;;;;9.51;100.00;100019.46;100641;1337;22864;-34
2022/11/02 07:13:14;;;;;;;17.80;11.80;;;;;;;9.58;100.00;100016.89;100704;1342;24282;-37
2022/11/02 07:15:39;;;;;;;22.40;10.50;;;;;;;9.65;100.00;100015.01;100742;1337;22507;-34
2022/11/02 07:18:07;;;;;;;21.90;10.50;;;;;;;9.70;100.00;100010.83;100709;1341;23115;-33
2022/11/02 07:20:34;;;;;;;21.70;12.20;;;;;;;9.73;100.00;100014.25;100743;1331;22741;-33
2022/11/02 07:23:00;;;;;;;17.20;8.90;;;;;;;9.77;100.00;100013.02;100729;1341;22781;-34
2022/11/02 07:25:27;;;;;;;28.60;10.10;;;;;;;9.92;100.00;100006.91;100726;1342;24411;-36
2022/11/02 07:27:53;;;;;;;12.10;7.90;;;;;;;10.11;100.00;99999.50;100754;1341;25554;-34
2022/11/02 07:30:19;;;;;;;18.40;9.30;;;;;;;10.27;100.00;99990.66;100768;1331;24373;-34
2022/11/02 07:32:45;;;;;;;20.10;9.80;;;;;;;10.40;100.00;99978.60;100699;1336;24366;-36
2022/11/02 07:35:12;;;;;;;15.30;8.60;;;;;;;10.55;100.00;99965.57;100729;1341;24440;-34
2022/11/02 07:37:38;;;;;;;21.50;10.70;;;;;;;10.65;100.00;99954.41;100694;1341;22808;-37
2022/11/02 07:40:06;;;;;;;12.50;8.10;;;;;;;10.82;100.00;99946.70;100700;1336;22875;-38
2022/11/02 07:42:32;;;;;;;17.00;9.40;;;;;;;11.05;100.00;99936.39;100751;1333;22738;-36
2022/11/02 07:44:58;;;;;;;12.70;7.60;;;;;;;11.18;100.00;99928.52;100549;1333;22792;-36
2022/11/02 07:47:24;;;;;;;13.50;8.00;;;;;;;11.25;100.00;99924.69;100673;1342;22490;-37
2022/11/02 07:49:49;;;;;;;13.20;8.10;;;;;;;11.31;100.00;99921.91;100680;1323;23064;-39
2022/11/02 07:52:15;;;;;;;;;;;;;;;11.35;100.00;99921.48;100562;1331;22762;-38
2022/11/02 07:54:41;;;;;;;12.30;5.90;;;;;;;11.56;100.00;99918.00;100641;1342;22823;-38
2022/11/02 07:57:06;;;;;;;13.80;7.30;;;;;;;11.60;100.00;99911.73;100698;1341;24031;-44
2022/11/02 07:59:32;;;;;;;8.70;4.70;;;;;;;11.69;100.00;99908.04;100723;1336;25199;-34
2022/11/02 08:01:57;;;;;;;7.70;4.70;;;;;;;11.69;100.00;99905.73;100541;1342;23067;-34
2022/11/02 08:04:23;;;;;;;17.50;5.70;;;;;;;11.65;100.00;99910.04;100700;1333;25043;-33
2022/11/02 08:06:49;;;;;;;10.60;6.20;;;;;;;11.68;100.00;99910.96;100681;1341;23056;-33
2022/11/02 08:09:14;;;;;;;6.80;3.80;;;;;;;11.76;100.00;99910.84;100699;1331;22888;-37
2022/11/02 08:11:40;;;;;;;11.10;4.70;;;;;;;11.76;100.00;99911.86;100681;1341;23220;-34
2022/11/02 08:14:06;;;;;;;;;;;;;;;11.89;100.00;99912.48;100515;1337;22758;-34
2022/11/02 08:16:32;;;;;;;9.50;6.30;;;;;;;11.98;100.00;99908.41;100663;1341;22752;-38
2022/11/02 08:18:58;;;;;;;4.40;2.30;;;;;;;12.12;100.00;99904.88;100758;1341;24375;-35
2022/11/02 08:21:24;;;;;;;8.90;5.70;;;;;;;12.46;100.00;99898.30;100581;1334;22733;-37
2022/11/02 08:23:50;;;;;;;8.80;4.20;;;;;;;12.67;100.00;99894.68;100692;1329;24411;-35
2022/11/02 08:26:16;;;;;;;8.40;4.80;;;;;;;12.76;100.00;99893.98;100584;1341;23005;-40
2022/11/02 08:28:41;;;;;;;12.10;3.30;;;;;;;12.98;100.00;99897.29;100592;1339;22667;-36
2022/11/02 08:31:11;;;;;;;9.10;5.00;;;;;;;13.24;100.00;99890.11;100688;1341;24282;-38
2022/11/02 08:33:37;;;;;;;12.10;5.20;;;;;;;13.27;100.00;99885.29;100806;1340;22766;-38
2022/11/02 08:36:03;;;;;;;9.20;4.60;;;;;;;13.50;99.99;99886.07;100705;1340;22877;-34
2022/11/02 08:38:30;;;;;;;5.60;2.60;;;;;;;13.64;100.00;99882.02;100641;1332;23113;-37
2022/11/02 08:40:55;;;;;;;8.80;3.90;;;;;;;13.91;97.64;99878.87;100716;1340;24459;-37
2022/11/02 08:43:21;;;;;;;10.80;3.80;;;;;;;14.05;97.62;99878.36;100709;1341;24511;-37
2022/11/02 08:45:46;;;;;;;8.40;3.00;;;;;;;14.10;94.27;99878.52;100697;1341;25581;-36
2022/11/02 08:48:12;;;;;;;7.90;3.20;;;;;;;14.16;93.48;99879.61;100735;1333;24334;-35
2022/11/02 08:50:38;;;;;;;3.60;2.70;;;;;;;14.44;90.11;99875.58;100678;1341;22887;-33
2022/11/02 08:53:04;;;;;;;3.50;2.30;;;;;;;14.39;88.38;99873.70;100660;1340;22508;-33
2022/11/02 08:55:30;;;;;;;4.60;3.00;;;;;;;14.42;86.86;99875.20;100514;1341;23107;-36
2022/11/02 08:57:56;;;;;;;5.60;2.50;;;;;;;14.37;88.50;99877.57;100730;1341;25394;-35
2022/11/02 09:00:24;;;;;;;4.40;2.90;;;;;;;14.53;87.20;99881.98;100719;1337;25598;-38
2022/11/02 09:02:57;;;;;;;7.50;1.50;;;;;;;14.48;85.97;99877.61;100624;1333;22842;-35
2022/11/02 09:05:22;;;;;;;0.50;0.50;;;;;;;14.47;84.16;99879.58;100696;1341;23912;-34
2022/11/02 09:07:54;;;;;;;5.30;2.30;;;;;;;14.49;85.19;99881.77;100616;1339;24392;-34
2022/11/02 09:10:19;;;;;;;2.50;1.60;;;;;;;14.44;85.78;99875.53;100697;1341;23992;-36
2022/11/02 09:12:45;;;;;;;2.90;2.00;;;;;;;14.37;84.38;99878.49;100652;1340;26640;-34
2022/11/02 09:15:10;;;;;;;14.90;2.50;;;;;;;14.30;84.37;99880.73;100659;1340;23042;-34
2022/11/02 09:17:36;;;;;;;1.60;1.00;;;;;;;14.55;83.36;99879.45;100701;1339;23228;-37
2022/11/02 09:20:02;;;;;;;2.40;1.20;;;;;;;14.34;84.60;99882.33;100737;1341;22801;-34
2022/11/02 09:22:27;;;;;;;2.70;1.90;;;;;;;14.31;85.16;99878.58;100746;1341;24561;-38
2022/11/02 09:24:53;;;;;;;3.80;2.30;;;;;;;14.50;84.17;99882.48;100715;1341;22517;-35
2022/11/02 09:27:18;;;;;;;6.40;2.80;;;;;;;14.43;84.69;99878.06;100607;1341;24355;-38
2022/11/02 09:29:44;;;;;;;4.60;2.30;;;;;;;14.31;84.91;99879.31;100590;1341;25311;-38
2022/11/02 09:32:09;;;;;;;5.50;2.70;;;;;;;14.60;83.25;99877.58;100716;1333;22921;-35
2022/11/02 09:34:36;;;;;;;2.10;1.20;;;;;;;14.60;83.77;99878.45;100661;1341;24770;-35
2022/11/02 09:37:01;;;;;;;4.00;1.90;;;;;;;15.01;82.68;99882.52;100468;1341;22748;-37
2022/11/02 09:39:27;;;;;;;3.60;1.90;;;;;;;15.11;81.57;99886.48;100668;1341;24289;-35
2022/11/02 09:42:00;;;;;;;5.00;1.80;;;;;;;15.19;78.92;99882.94;100614;1339;25070;-37
2022/11/02 09:44:34;;;;;;;2.10;1.30;;;;;;;15.08;78.16;99882.60;100696;1337;25369;-37
2022/11/02 09:47:01;;;;;;;5.50;2.60;;;;;;;15.18;77.95;99879.64;100633;1339;23092;-37
2022/11/02 09:49:27;;;;;;;12.10;2.30;;;;;;;15.22;77.71;99881.70;100725;1333;22526;-35
2022/11/02 09:51:54;;;;;;;8.40;1.50;;;;;;;15.51;76.01;99882.19;100704;1341;22512;-37
2022/11/02 09:54:26;;;;;;;4.20;1.70;;;;;;;15.40;76.70;99882.61;100697;1340;23136;-36
2022/11/02 09:56:53;;;;;;;5.30;1.70;;;;;;;15.41;77.84;99874.70;100640;1332;22899;-36
2022/11/02 09:59:21;;;;;;;3.10;1.40;;;;;;;15.67;76.61;99870.85;100687;1333;25686;-35
2022/11/02 10:01:49;;;;;;;5.10;2.20;;;;;;;16.05;70.40;99867.84;100684;1329;22807;-36
2022/11/02 10:04:22;;;;;;;11.70;2.00;;;;;;;15.95;71.77;99864.27;100682;1340;22713;-36
2022/11/02 10:06:55;;;;;;;4.00;3.00;;;;;;;16.13;70.60;99859.61;100705;1341;22521;-36
2022/11/02 10:09:26;;;;;;;2.50;1.00;;;;;;;16.18;70.25;99854.84;100771;1341;22491;-35
2022/11/02 10:11:57;;;;;;;3.60;1.10;;;;;;;16.39;68.82;99857.28;100743;1341;25280;-38
2022/11/02 10:14:28;;;;;;;1.90;0.90;;;;;;;16.35;67.36;99860.16;100691;1338;23238;-37
2022/11/02 10:16:58;;;;;;;1.30;0.90;;;;;;;16.41;66.68;99859.73;100747;1341;25625;-35
2022/11/02 10:19:23;;;;;;;2.30;1.20;;;;;;;16.38;66.92;99857.39;100704;1341;22860;-36
2022/11/02 10:21:53;;;;;;;3.60;1.00;;;;;;;16.17;68.28;99858.66;100444;1341;23363;-38
2022/11/02 10:24:24;;;;;;;1.20;0.60;;;;;;;16.32;67.64;99849.48;100730;1313;22761;-36
2022/11/02 10:26:53;;;;;;;1.80;0.60;;;;;;;16.23;66.34;99849.48;100746;1341;22549;-33
2022/11/02 10:29:26;;;;;;;3.00;1.30;;;;;;;16.23;65.11;99845.72;100698;1324;23234;-33
2022/11/02 10:31:51;;;;;;;2.80;1.40;;;;;;;16.31;66.20;99851.40;100642;1341;22742;-38
2022/11/02 10:34:23;;;;;;;3.40;1.30;;;;;;;16.44;64.26;99851.31;100679;1336;26489;-35
2022/11/02 10:36:54;;;;;;;3.10;1.10;;;;;;;16.60;62.76;99844.32;100740;1323;22509;-35
2022/11/02 10:39:26;;;;;;;4.30;1.20;;;;;;;16.50;63.17;99842.99;100668;1341;23330;-33
2022/11/02 10:41:58;;;;;;;4.20;2.20;;;;;;;16.59;63.29;99838.16;100627;1341;22532;-40
2022/11/02 10:44:31;;;;;;;5.60;1.20;;;;;;;16.83;61.96;99838.73;100754;1331;22762;-35
2022/11/02 10:47:04;;;;;;;2.40;0.80;;;;;;;16.99;59.57;99837.56;100645;1340;23067;-35
2022/11/02 10:49:36;;;;;;;2.10;1.30;;;;;;;17.04;59.35;99835.61;100717;1339;22522;-35
2022/11/02 10:52:03;;;;;;;1.40;1.10;;;;;;;17.29;58.96;99832.88;100521;1341;22631;-35
2022/11/02 10:54:28;;;;;;;0.70;0.50;;;;;;;17.28;58.20;99835.13;100678;1341;24436;-37
2022/11/02 10:56:54;;;;;;;2.00;1.00;;;;;;;17.45;55.33;99830.77;100676;1340;22935;-37
2022/11/02 10:59:22;;;;;;;2.80;1.10;;;;;;;17.39;55.21;99834.61;100735;1331;22888;-35
2022/11/02 11:01:55;;;;;;;2.40;1.70;;;;;;;17.50;55.61;99831.69;100728;1341;24949;-35
2022/11/02 11:04:23;;;;;;;3.60;0.40;;;;;;;17.43;55.65;99827.40;100734;1341;23232;-35
2022/11/02 11:06:49;;;;;;;2.70;1.20;;;;;;;17.47;55.71;99830.97;100716;1323;24323;-37
2022/11/02 11:09:19;;;;;;;6.40;1.40;;;;;;;17.58;55.21;99836.85;100609;1333;25235;-37
2022/11/02 11:11:52;;;;;;;3.00;0.70;;;;;;;17.57;55.71;99840.52;100740;1340;23148;-35
2022/11/02 11:14:19;;;;;;;0.30;0.20;;;;;;;17.48;54.45;99844.58;100700;1333;25250;-35
2022/11/02 11:16:47;;;;;;;15.00;1.20;;;;;;;17.52;53.61;99845.98;100503;1334;24518;-34
2022/11/02 11:19:19;;;;;;;1.20;0.90;;;;;;;17.69;54.14;99845.53;100765;1340;22854;-36
2022/11/02 11:21:44;;;;;;;1.40;0.70;;;;;;;17.63;54.82;99844.37;100727;1341;26502;-35
2022/11/02 11:24:17;;;;;;;3.90;1.60;;;;;;;17.51;54.82;99846.42;100693;1334;22514;-34
2022/11/02 11:26:43;;;;;;;4.00;1.70;;;;;;;17.21;56.20;99844.87;100736;1339;24306;-38